<?xml version="1.0" encoding="UTF-8" standalone="no" ?>
<gpx xmlns="http://www.topografix.com/GPX/1/1" xmlns:xsi="http://www.w3.org/2001/XMLSchema-instance" xsi:schemaLocation="http://www.topografix.com/GPX/1/1 http://www.topografix.com/GPX/1/1/gpx.xsd" version="1.1" creator="VisuGPX - https://www.visugpx.com">
  <metadata>
    <name>Le Bois Labot à Billezois 03</name>
    <desc><![CDATA[suivre le balisage chemin de randonnée. parcours pratiquement plat 90 en dénivelé positif]]></desc>
  </metadata>
  <trk>
    <name><![CDATA[OR-8199656--Billezois:le bois labot]]></name>
    <trkseg>
      <trkpt lat="46.21179" lon="3.54567">
        <ele>297</ele>
        <time>2017-12-18T10:00:29Z</time>
      </trkpt>
      <trkpt lat="46.21057" lon="3.54331">
        <ele>289</ele>
        <time>2017-12-18T10:02:29Z</time>
      </trkpt>
      <trkpt lat="46.20811" lon="3.54099">
        <ele>290</ele>
        <time>2017-12-18T10:04:29Z</time>
      </trkpt>
      <trkpt lat="46.20547" lon="3.53936">
        <ele>294</ele>
        <time>2017-12-18T10:06:29Z</time>
      </trkpt>
      <trkpt lat="46.20291" lon="3.5382">
        <ele>300</ele>
        <time>2017-12-18T10:08:29Z</time>
      </trkpt>
      <trkpt lat="46.2044" lon="3.53481">
        <ele>288</ele>
        <time>2017-12-18T10:10:29Z</time>
      </trkpt>
      <trkpt lat="46.20383" lon="3.53374">
        <ele>286</ele>
        <time>2017-12-18T10:12:29Z</time>
      </trkpt>
      <trkpt lat="46.20175" lon="3.53198">
        <ele>285</ele>
        <time>2017-12-18T10:14:29Z</time>
      </trkpt>
      <trkpt lat="46.20059" lon="3.53039">
        <ele>287</ele>
        <time>2017-12-18T10:16:29Z</time>
      </trkpt>
      <trkpt lat="46.19976" lon="3.52782">
        <ele>285</ele>
        <time>2017-12-18T10:18:29Z</time>
      </trkpt>
      <trkpt lat="46.19846" lon="3.53009">
        <ele>290</ele>
        <time>2017-12-18T10:20:29Z</time>
      </trkpt>
      <trkpt lat="46.19519" lon="3.52988">
        <ele>295</ele>
        <time>2017-12-18T10:22:29Z</time>
      </trkpt>
      <trkpt lat="46.19142" lon="3.52902">
        <ele>293</ele>
        <time>2017-12-18T10:24:29Z</time>
      </trkpt>
      <trkpt lat="46.19017" lon="3.52833">
        <ele>291</ele>
        <time>2017-12-18T10:26:29Z</time>
      </trkpt>
      <trkpt lat="46.18948" lon="3.52876">
        <ele>292</ele>
        <time>2017-12-18T10:28:29Z</time>
      </trkpt>
      <trkpt lat="46.18951" lon="3.53228">
        <ele>300</ele>
        <time>2017-12-18T10:30:29Z</time>
      </trkpt>
      <trkpt lat="46.19103" lon="3.53254">
        <ele>301</ele>
        <time>2017-12-18T10:32:29Z</time>
      </trkpt>
      <trkpt lat="46.19058" lon="3.53631">
        <ele>311</ele>
        <time>2017-12-18T10:34:29Z</time>
      </trkpt>
      <trkpt lat="46.19177" lon="3.5385">
        <ele>316</ele>
        <time>2017-12-18T10:36:29Z</time>
      </trkpt>
      <trkpt lat="46.19272" lon="3.53979">
        <ele>315</ele>
        <time>2017-12-18T10:38:29Z</time>
      </trkpt>
      <trkpt lat="46.19266" lon="3.54078">
        <ele>318</ele>
        <time>2017-12-18T10:40:29Z</time>
      </trkpt>
      <trkpt lat="46.19376" lon="3.54155">
        <ele>315</ele>
        <time>2017-12-18T10:42:29Z</time>
      </trkpt>
      <trkpt lat="46.19424" lon="3.54202">
        <ele>319</ele>
        <time>2017-12-18T10:44:29Z</time>
      </trkpt>
      <trkpt lat="46.19483" lon="3.54352">
        <ele>324</ele>
        <time>2017-12-18T10:46:29Z</time>
      </trkpt>
      <trkpt lat="46.194" lon="3.54541">
        <ele>332</ele>
        <time>2017-12-18T10:48:29Z</time>
      </trkpt>
      <trkpt lat="46.19566" lon="3.54992">
        <ele>339</ele>
        <time>2017-12-18T10:50:29Z</time>
      </trkpt>
      <trkpt lat="46.19599" lon="3.55254">
        <ele>333</ele>
        <time>2017-12-18T10:52:29Z</time>
      </trkpt>
      <trkpt lat="46.19572" lon="3.55417">
        <ele>325</ele>
        <time>2017-12-18T10:54:29Z</time>
      </trkpt>
      <trkpt lat="46.19691" lon="3.55502">
        <ele>323</ele>
        <time>2017-12-18T10:56:29Z</time>
      </trkpt>
      <trkpt lat="46.19661" lon="3.55571">
        <ele>317</ele>
        <time>2017-12-18T10:58:29Z</time>
      </trkpt>
      <trkpt lat="46.1959" lon="3.55584">
        <ele>319</ele>
        <time>2017-12-18T11:00:29Z</time>
      </trkpt>
      <trkpt lat="46.1959" lon="3.5567">
        <ele>314</ele>
        <time>2017-12-18T11:02:29Z</time>
      </trkpt>
      <trkpt lat="46.19623" lon="3.55816">
        <ele>312</ele>
        <time>2017-12-18T11:04:29Z</time>
      </trkpt>
      <trkpt lat="46.1978" lon="3.55953">
        <ele>312</ele>
        <time>2017-12-18T11:06:29Z</time>
      </trkpt>
      <trkpt lat="46.19899" lon="3.56095">
        <ele>310</ele>
        <time>2017-12-18T11:08:29Z</time>
      </trkpt>
      <trkpt lat="46.20125" lon="3.56271">
        <ele>308</ele>
        <time>2017-12-18T11:10:29Z</time>
      </trkpt>
      <trkpt lat="46.20178" lon="3.56026">
        <ele>304</ele>
        <time>2017-12-18T11:12:29Z</time>
      </trkpt>
      <trkpt lat="46.20226" lon="3.55859">
        <ele>304</ele>
        <time>2017-12-18T11:14:29Z</time>
      </trkpt>
      <trkpt lat="46.20312" lon="3.5582">
        <ele>302</ele>
        <time>2017-12-18T11:16:29Z</time>
      </trkpt>
      <trkpt lat="46.20285" lon="3.55734">
        <ele>302</ele>
        <time>2017-12-18T11:18:29Z</time>
      </trkpt>
      <trkpt lat="46.20315" lon="3.55387">
        <ele>301</ele>
        <time>2017-12-18T11:20:29Z</time>
      </trkpt>
      <trkpt lat="46.20354" lon="3.55211">
        <ele>301</ele>
        <time>2017-12-18T11:22:29Z</time>
      </trkpt>
      <trkpt lat="46.20416" lon="3.55095">
        <ele>300</ele>
        <time>2017-12-18T11:24:29Z</time>
      </trkpt>
      <trkpt lat="46.20431" lon="3.54953">
        <ele>305</ele>
        <time>2017-12-18T11:26:29Z</time>
      </trkpt>
      <trkpt lat="46.20499" lon="3.54807">
        <ele>309</ele>
        <time>2017-12-18T11:28:29Z</time>
      </trkpt>
      <trkpt lat="46.20446" lon="3.54781">
        <ele>309</ele>
        <time>2017-12-18T11:30:29Z</time>
      </trkpt>
      <trkpt lat="46.20422" lon="3.54636">
        <ele>308</ele>
        <time>2017-12-18T11:32:29Z</time>
      </trkpt>
      <trkpt lat="46.20395" lon="3.54481">
        <ele>306</ele>
        <time>2017-12-18T11:34:29Z</time>
      </trkpt>
      <trkpt lat="46.20449" lon="3.54348">
        <ele>305</ele>
        <time>2017-12-18T11:36:29Z</time>
      </trkpt>
      <trkpt lat="46.20484" lon="3.54228">
        <ele>303</ele>
        <time>2017-12-18T11:38:29Z</time>
      </trkpt>
      <trkpt lat="46.20514" lon="3.54022">
        <ele>298</ele>
        <time>2017-12-18T11:40:29Z</time>
      </trkpt>
      <trkpt lat="46.20505" lon="3.53936">
        <ele>297</ele>
        <time>2017-12-18T11:42:29Z</time>
      </trkpt>
      <trkpt lat="46.20615" lon="3.54009">
        <ele>291</ele>
        <time>2017-12-18T11:44:29Z</time>
      </trkpt>
      <trkpt lat="46.20775" lon="3.54112">
        <ele>291</ele>
        <time>2017-12-18T11:46:29Z</time>
      </trkpt>
      <trkpt lat="46.20867" lon="3.54181">
        <ele>291</ele>
        <time>2017-12-18T11:48:29Z</time>
      </trkpt>
      <trkpt lat="46.20986" lon="3.54309">
        <ele>289</ele>
        <time>2017-12-18T11:50:29Z</time>
      </trkpt>
      <trkpt lat="46.21054" lon="3.54408">
        <ele>290</ele>
        <time>2017-12-18T11:52:29Z</time>
      </trkpt>
      <trkpt lat="46.21096" lon="3.54498">
        <ele>294</ele>
        <time>2017-12-18T11:54:29Z</time>
      </trkpt>
      <trkpt lat="46.21185" lon="3.54631">
        <ele>298</ele>
        <time>2017-12-18T11:56:29Z</time>
      </trkpt>
    </trkseg>
  </trk>
</gpx>